createdAt,value
2018-04-25T00:00:37.919Z,13.25
2018-04-25T00:01:38.121Z,13.06
2018-04-25T00:02:38.340Z,13.04
2018-04-25T00:03:38.561Z,13.04
2018-04-25T00:04:41.579Z,13.09
2018-04-25T00:05:38.930Z,13.06
2018-04-25T00:06:39.147Z,13.07
2018-04-25T00:07:39.352Z,13.15
2018-04-25T00:08:39.583Z,13.11
2018-04-25T00:09:39.793Z,13.06
2018-04-25T00:10:39.995Z,13.06
2018-04-25T00:11:40.226Z,13.09
2018-04-25T00:12:40.432Z,13.02
2018-04-25T00:13:42.573Z,12.88
2018-04-25T00:14:40.780Z,12.84
2018-04-25T00:15:40.988Z,12.84
2018-04-25T00:16:43.074Z,12.81
2018-04-25T00:17:41.417Z,12.87
2018-04-25T00:18:41.624Z,12.84
2018-04-25T00:19:41.842Z,12.70
2018-04-25T00:20:42.042Z,12.71
2018-04-25T00:21:42.267Z,12.64
2018-04-25T00:22:42.487Z,12.66
2018-04-25T00:23:42.689Z,12.59
2018-04-25T00:24:42.902Z,12.51
2018-04-25T00:25:43.117Z,12.52
2018-04-25T00:26:43.326Z,12.49
2018-04-25T00:27:43.541Z,12.54
2018-04-25T00:28:45.579Z,12.45
2018-04-25T00:29:43.907Z,12.48
2018-04-25T00:30:44.139Z,12.42
2018-04-25T00:31:44.341Z,12.44
2018-04-25T00:32:44.546Z,12.42
2018-04-25T00:33:44.762Z,12.46
2018-04-25T00:34:46.577Z,12.51
2018-04-25T00:35:45.154Z,12.49
2018-04-25T00:36:45.374Z,12.48
2018-04-25T00:37:45.603Z,12.56
2018-04-25T00:38:45.807Z,12.57
2018-04-25T00:39:49.577Z,12.56
2018-04-25T00:40:46.163Z,12.48
2018-04-25T00:41:46.389Z,12.51
2018-04-25T00:42:46.596Z,12.44
2018-04-25T00:43:46.814Z,12.46
2018-04-25T00:44:48.573Z,12.46
2018-04-25T00:45:47.235Z,12.37
2018-04-25T00:46:47.377Z,12.37
2018-04-25T00:47:47.587Z,12.37
2018-04-25T00:48:47.795Z,12.41
2018-04-25T00:49:48.014Z,12.39
2018-04-25T00:50:48.255Z,12.37
2018-04-25T00:51:48.447Z,12.34
2018-04-25T00:52:48.665Z,12.27
2018-04-25T00:53:50.579Z,12.26
2018-04-25T00:54:49.043Z,12.34
2018-04-25T00:55:49.262Z,12.26
2018-04-25T00:56:49.467Z,12.23
2018-04-25T00:57:49.690Z,12.30
2018-04-25T00:58:49.900Z,12.24
2018-04-25T00:59:52.093Z,12.19
2018-04-25T01:00:50.291Z,12.26
2018-04-25T01:01:50.502Z,12.26
2018-04-25T01:02:53.019Z,12.38
2018-04-25T01:03:50.873Z,12.27
2018-04-25T01:04:51.088Z,12.15
2018-04-25T01:05:51.302Z,12.11
2018-04-25T01:06:51.521Z,11.97
2018-04-25T01:07:51.725Z,12.04
2018-04-25T01:08:51.936Z,12.06
2018-04-25T01:09:52.143Z,12.05
2018-04-25T01:10:52.399Z,11.90
2018-04-25T01:11:52.674Z,11.86
2018-04-25T01:12:52.797Z,11.89
2018-04-25T01:13:53.014Z,11.86
2018-04-25T01:14:53.226Z,11.74
2018-04-25T01:15:53.431Z,11.71
2018-04-25T01:16:53.665Z,11.65
2018-04-25T01:17:53.874Z,11.62
2018-04-25T01:18:54.071Z,11.61
2018-04-25T01:19:54.282Z,11.57
2018-04-25T01:20:54.488Z,11.53
2018-04-25T01:21:54.697Z,11.47
2018-04-25T01:22:54.914Z,11.53
2018-04-25T01:23:55.127Z,11.54
2018-04-25T01:24:58.082Z,11.56
2018-04-25T01:25:55.547Z,11.53
2018-04-25T01:26:55.757Z,11.43
2018-04-25T01:27:55.977Z,11.50
2018-04-25T01:28:56.188Z,11.54
2018-04-25T01:29:56.394Z,11.49
2018-04-25T01:30:56.612Z,11.53
2018-04-25T01:31:56.827Z,11.54
2018-04-25T01:32:57.041Z,11.47
2018-04-25T01:33:57.257Z,11.59
2018-04-25T01:34:57.478Z,11.56
2018-04-25T01:35:57.705Z,11.56
2018-04-25T01:36:57.912Z,11.61
2018-04-25T01:37:58.117Z,11.62
2018-04-25T01:38:58.333Z,11.57
2018-04-25T01:39:58.543Z,11.61
2018-04-25T01:40:58.752Z,11.62
2018-04-25T01:41:58.971Z,11.62
2018-04-25T01:42:59.178Z,11.71
2018-04-25T01:44:01.079Z,11.65
2018-04-25T01:44:59.544Z,11.62
2018-04-25T01:45:59.749Z,11.59
2018-04-25T01:46:59.964Z,11.61
2018-04-25T01:48:00.186Z,11.59
2018-04-25T01:49:00.395Z,11.52
2018-04-25T01:50:00.613Z,11.57
2018-04-25T01:51:00.837Z,11.57
2018-04-25T01:52:01.034Z,11.64
2018-04-25T01:53:03.086Z,11.54
2018-04-25T01:54:01.428Z,11.53
2018-04-25T01:55:01.642Z,11.50
2018-04-25T01:56:01.854Z,11.50
2018-04-25T01:57:02.066Z,11.41
2018-04-25T01:58:04.077Z,11.38
2018-04-25T01:59:02.411Z,11.39
2018-04-25T02:00:02.628Z,11.29
2018-04-25T02:01:02.890Z,11.34
2018-04-25T02:02:03.048Z,11.36
2018-04-25T02:03:03.262Z,11.32
2018-04-25T02:04:03.489Z,11.25
2018-04-25T02:05:03.687Z,11.35
2018-04-25T02:06:03.907Z,11.24
2018-04-25T02:07:06.076Z,11.21
2018-04-25T02:08:04.291Z,11.17
2018-04-25T02:09:04.505Z,11.21
2018-04-25T02:10:04.711Z,11.19
2018-04-25T02:11:04.916Z,11.14
2018-04-25T02:12:05.145Z,11.11
2018-04-25T02:13:05.348Z,11.13
2018-04-25T02:14:05.560Z,11.24
2018-04-25T02:15:05.776Z,11.10
2018-04-25T02:16:05.980Z,11.09
2018-04-25T02:17:06.190Z,10.99
2018-04-25T02:18:06.417Z,10.99
2018-04-25T02:19:08.585Z,10.96
2018-04-25T02:20:06.804Z,10.91
2018-04-25T02:21:07.023Z,10.92
2018-04-25T02:22:07.228Z,10.95
2018-04-25T02:23:11.076Z,10.96
2018-04-25T02:24:07.654Z,10.96
2018-04-25T02:25:07.895Z,10.94
2018-04-25T02:26:08.073Z,10.91
2018-04-25T02:27:08.290Z,10.89
2018-04-25T02:28:08.498Z,10.89
2018-04-25T02:29:08.726Z,10.80
2018-04-25T02:30:08.930Z,10.88
2018-04-25T02:31:09.143Z,10.77
2018-04-25T02:32:12.083Z,10.77
2018-04-25T02:33:09.544Z,10.74
2018-04-25T02:34:09.772Z,10.83
2018-04-25T02:35:09.962Z,10.76
2018-04-25T02:36:10.175Z,10.71
2018-04-25T02:37:12.081Z,10.63
2018-04-25T02:38:12.083Z,10.58
2018-04-25T02:39:10.683Z,10.60
2018-04-25T02:40:10.891Z,10.55
2018-04-25T02:41:11.101Z,10.59
2018-04-25T02:42:11.312Z,10.56
2018-04-25T02:43:11.525Z,10.42
2018-04-25T02:44:11.732Z,10.47
2018-04-25T02:45:11.947Z,10.53
2018-04-25T02:46:12.156Z,10.46
2018-04-25T02:47:14.081Z,10.44
2018-04-25T02:48:14.088Z,10.37
2018-04-25T02:49:12.666Z,10.37
2018-04-25T02:50:12.885Z,10.36
2018-04-25T02:51:13.092Z,10.32
2018-04-25T02:52:13.305Z,10.42
2018-04-25T02:53:13.563Z,10.34
2018-04-25T02:54:13.727Z,10.32
2018-04-25T02:55:15.580Z,10.36
2018-04-25T02:56:14.180Z,10.33
2018-04-25T02:57:14.387Z,10.39
2018-04-25T02:58:14.601Z,10.42
2018-04-25T02:59:14.827Z,10.39
2018-04-25T03:00:15.019Z,10.33
2018-04-25T03:01:15.231Z,10.37
2018-04-25T03:02:15.439Z,10.22
2018-04-25T03:03:15.648Z,10.26
2018-04-25T03:04:15.875Z,10.30
2018-04-25T03:05:16.073Z,10.36
2018-04-25T03:06:16.294Z,10.22
2018-04-25T03:07:16.524Z,10.25
2018-04-25T03:08:16.720Z,10.22
2018-04-25T03:09:16.942Z,10.25
2018-04-25T03:10:19.083Z,10.32
2018-04-25T03:11:17.291Z,10.24
2018-04-25T03:12:17.518Z,10.18
2018-04-25T03:13:17.765Z,10.17
2018-04-25T03:14:19.579Z,10.19
2018-04-25T03:15:20.089Z,10.24
2018-04-25T03:16:18.311Z,10.19
2018-04-25T03:17:18.531Z,10.18
2018-04-25T03:18:18.725Z,10.18
2018-04-25T03:19:20.590Z,10.12
2018-04-25T03:20:19.174Z,10.18
2018-04-25T03:21:19.396Z,10.12
2018-04-25T03:22:19.605Z,10.10
2018-04-25T03:23:21.580Z,10.12
2018-04-25T03:24:21.592Z,10.09
2018-04-25T03:25:20.170Z,10.15
2018-04-25T03:26:20.400Z,10.26
2018-04-25T03:27:20.607Z,10.22
2018-04-25T03:28:20.827Z,10.32
2018-04-25T03:29:21.041Z,10.24
2018-04-25T03:30:21.247Z,10.28
2018-04-25T03:31:21.466Z,10.25
2018-04-25T03:32:21.695Z,10.32
2018-04-25T03:33:21.895Z,10.26
2018-04-25T03:34:24.085Z,10.34
2018-04-25T03:35:22.297Z,10.39
2018-04-25T03:36:22.513Z,10.32
2018-04-25T03:37:22.733Z,10.30
2018-04-25T03:38:24.578Z,10.34
2018-04-25T03:39:25.080Z,10.36
2018-04-25T03:40:25.082Z,10.37
2018-04-25T03:41:23.438Z,10.36
2018-04-25T03:42:23.636Z,10.42
2018-04-25T03:43:23.842Z,10.42
2018-04-25T03:44:24.058Z,10.56
2018-04-25T03:45:24.286Z,10.55
2018-04-25T03:46:24.380Z,10.32
2018-04-25T03:47:24.606Z,10.42
2018-04-25T03:48:24.822Z,10.47
2018-04-25T03:49:25.029Z,10.39
2018-04-25T03:50:25.282Z,10.32
2018-04-25T03:51:25.479Z,10.36
2018-04-25T03:52:27.587Z,10.33
2018-04-25T03:53:25.933Z,10.39
2018-04-25T03:54:26.146Z,10.36
2018-04-25T03:55:26.354Z,10.33
2018-04-25T03:56:26.566Z,10.34
2018-04-25T03:57:28.583Z,10.37
2018-04-25T03:58:28.594Z,10.36
2018-04-25T03:59:27.053Z,10.37
2018-04-25T04:00:27.256Z,10.37
2018-04-25T04:01:27.473Z,10.33
2018-04-25T04:02:27.682Z,10.32
2018-04-25T04:03:27.893Z,10.26
2018-04-25T04:04:28.110Z,10.43
2018-04-25T04:05:28.323Z,10.25
2018-04-25T04:06:30.086Z,10.30
2018-04-25T04:07:28.659Z,10.18
2018-04-25T04:08:28.860Z,10.25
2018-04-25T04:09:29.073Z,10.22
2018-04-25T04:10:29.284Z,10.24
2018-04-25T04:11:29.501Z,10.28
2018-04-25T04:12:29.721Z,10.22
2018-04-25T04:13:29.931Z,10.30
2018-04-25T04:14:30.147Z,10.26
2018-04-25T04:15:30.362Z,10.25
2018-04-25T04:16:30.565Z,10.28
2018-04-25T04:17:30.797Z,10.25
2018-04-25T04:18:32.583Z,10.36
2018-04-25T04:19:32.507Z,10.32
2018-04-25T04:20:33.080Z,10.40
2018-04-25T04:21:31.546Z,10.56
2018-04-25T04:22:36.584Z,10.58
2018-04-25T04:23:33.589Z,10.43
2018-04-25T04:24:32.044Z,10.56
2018-04-25T04:25:32.269Z,10.62
2018-04-25T04:26:32.486Z,10.63
2018-04-25T04:27:32.689Z,10.71
2018-04-25T04:28:32.891Z,10.68
2018-04-25T04:29:33.104Z,10.81
2018-04-25T04:30:33.318Z,10.84
2018-04-25T04:31:33.524Z,10.91
2018-04-25T04:32:33.728Z,10.94
2018-04-25T04:33:33.944Z,10.99
2018-04-25T04:34:34.161Z,11.06
2018-04-25T04:35:36.075Z,11.10
2018-04-25T04:36:34.537Z,11.20
2018-04-25T04:37:34.739Z,11.20
2018-04-25T04:38:34.946Z,11.34
2018-04-25T04:39:35.170Z,11.28
2018-04-25T04:40:35.375Z,11.31
2018-04-25T04:41:35.588Z,11.32
2018-04-25T04:42:35.796Z,11.39
2018-04-25T04:43:37.601Z,11.50
2018-04-25T04:44:36.186Z,11.56
2018-04-25T04:45:36.381Z,11.61
2018-04-25T04:46:40.580Z,11.61
2018-04-25T04:47:36.806Z,11.59
2018-04-25T04:48:37.017Z,11.67
2018-04-25T04:49:37.307Z,11.62
2018-04-25T04:50:39.082Z,11.77
2018-04-25T04:51:37.671Z,11.77
2018-04-25T04:52:37.880Z,11.93
2018-04-25T04:53:38.103Z,11.82
2018-04-25T04:54:38.323Z,11.86
2018-04-25T04:55:38.534Z,11.96
2018-04-25T04:56:40.594Z,12.09
2018-04-25T04:57:38.936Z,12.15
2018-04-25T04:58:39.159Z,12.09
2018-04-25T04:59:39.392Z,12.13
2018-04-25T05:00:39.581Z,12.13
2018-04-25T05:01:39.801Z,12.31
2018-04-25T05:02:40.019Z,12.21
2018-04-25T05:03:40.243Z,12.26
2018-04-25T05:04:40.456Z,12.31
2018-04-25T05:05:40.667Z,12.42
2018-04-25T05:06:40.881Z,12.44
2018-04-25T05:07:42.582Z,12.54
2018-04-25T05:08:57.080Z,12.64
2018-04-25T05:09:41.538Z,12.79
2018-04-25T05:10:41.771Z,12.81
2018-04-25T05:11:41.976Z,12.97
2018-04-25T05:12:42.200Z,13.11
2018-04-25T05:13:42.400Z,13.21
2018-04-25T05:14:42.611Z,13.21
2018-04-25T05:15:42.835Z,13.29
2018-04-25T05:16:43.034Z,13.36
2018-04-25T05:17:43.245Z,13.41
2018-04-25T05:18:43.466Z,13.37
2018-04-25T05:19:43.673Z,13.51
2018-04-25T05:20:43.890Z,13.54
2018-04-25T05:21:44.106Z,13.56
2018-04-25T05:22:44.322Z,13.56
2018-04-25T05:23:46.087Z,13.63
2018-04-25T05:24:44.764Z,13.70
2018-04-25T05:25:44.884Z,13.73
2018-04-25T05:26:45.094Z,13.76
2018-04-25T05:27:47.087Z,13.79
2018-04-25T05:28:45.431Z,13.87
2018-04-25T05:29:45.647Z,13.89
2018-04-25T05:30:45.841Z,13.84
2018-04-25T05:31:47.636Z,13.88
2018-04-25T05:32:48.096Z,14.04
2018-04-25T05:33:46.299Z,14.06
2018-04-25T05:34:46.523Z,13.96
2018-04-25T05:35:46.738Z,14.01
2018-04-25T05:36:46.940Z,14.09
2018-04-25T05:37:47.166Z,14.01
2018-04-25T05:38:47.389Z,14.07
2018-04-25T05:39:47.600Z,14.09
2018-04-25T05:40:47.824Z,14.24
2018-04-25T05:41:48.043Z,14.16
2018-04-25T05:42:48.256Z,14.20
2018-04-25T05:43:48.465Z,14.21
2018-04-25T05:44:50.583Z,14.31
2018-04-25T05:45:50.613Z,14.25
2018-04-25T05:46:48.924Z,14.29
2018-04-25T05:47:49.140Z,14.29
2018-04-25T05:48:49.344Z,14.24
2018-04-25T05:49:49.550Z,14.39
2018-04-25T05:50:49.775Z,14.39
2018-04-25T05:51:50.011Z,14.47
2018-04-25T05:52:50.213Z,14.52
2018-04-25T05:53:50.458Z,14.57
2018-04-25T05:54:50.652Z,14.52
2018-04-25T05:55:50.874Z,14.56
2018-04-25T05:56:51.110Z,14.64
2018-04-25T05:57:51.428Z,14.54
2018-04-25T05:58:53.088Z,14.56
2018-04-25T05:59:51.684Z,14.56
2018-04-25T06:00:51.892Z,14.56
2018-04-25T06:01:52.120Z,14.60
2018-04-25T06:02:52.330Z,14.54
2018-04-25T06:03:52.535Z,14.54
2018-04-25T06:04:52.757Z,14.64
2018-04-25T06:05:54.584Z,14.57
2018-04-25T06:06:53.164Z,14.46
2018-04-25T06:07:53.383Z,14.60
2018-04-25T06:08:53.590Z,14.50
2018-04-25T06:09:53.817Z,14.56
2018-04-25T06:10:54.035Z,14.49
2018-04-25T06:11:54.238Z,14.50
2018-04-25T06:12:56.086Z,14.50
2018-04-25T06:13:54.666Z,14.39
2018-04-25T06:14:54.886Z,14.54
2018-04-25T06:15:55.101Z,14.62
2018-04-25T06:16:55.300Z,14.64
2018-04-25T06:17:55.562Z,14.64
2018-04-25T06:18:55.653Z,14.67
2018-04-25T06:19:55.863Z,14.69
2018-04-25T06:20:59.586Z,14.68
2018-04-25T06:21:56.330Z,14.87
2018-04-25T06:22:56.508Z,14.86
2018-04-25T06:23:56.723Z,14.88
2018-04-25T06:24:56.936Z,14.95
2018-04-25T06:25:57.150Z,14.91
2018-04-25T06:26:57.385Z,14.91
2018-04-25T06:27:57.581Z,14.98
2018-04-25T06:28:57.788Z,15.02
2018-04-25T06:29:59.588Z,15.09
2018-04-25T06:30:58.177Z,15.12
2018-04-25T06:31:58.406Z,15.12
2018-04-25T06:32:58.611Z,15.15
2018-04-25T06:33:58.830Z,15.05
2018-04-25T06:34:59.049Z,15.26
2018-04-25T06:35:59.257Z,15.30
2018-04-25T06:36:59.468Z,15.42
2018-04-25T06:37:59.690Z,15.45
2018-04-25T06:38:59.902Z,15.49
2018-04-25T06:40:02.091Z,15.52
2018-04-25T06:41:00.307Z,15.59
2018-04-25T06:42:00.503Z,15.64
2018-04-25T06:43:00.738Z,15.60
2018-04-25T06:44:00.949Z,15.61
2018-04-25T06:45:01.268Z,15.64
2018-04-25T06:46:01.397Z,15.84
2018-04-25T06:47:03.632Z,15.82
2018-04-25T06:48:09.583Z,15.78
2018-04-25T06:49:01.927Z,15.76
2018-04-25T06:50:02.144Z,15.78
2018-04-25T06:51:02.399Z,15.81
2018-04-25T06:52:02.587Z,15.81
2018-04-25T06:53:02.797Z,15.76
2018-04-25T06:54:03.023Z,15.82
2018-04-25T06:55:05.088Z,15.78
2018-04-25T06:56:03.423Z,15.75
2018-04-25T06:57:05.589Z,15.72
2018-04-25T06:58:03.809Z,15.68
2018-04-25T06:59:04.017Z,15.67
2018-04-25T07:00:04.232Z,15.78
2018-04-25T07:01:04.438Z,15.85
2018-04-25T07:02:04.663Z,15.88
2018-04-25T07:03:04.875Z,15.93
2018-04-25T07:04:05.083Z,15.89
2018-04-25T07:05:05.303Z,15.89
2018-04-25T07:06:05.512Z,16.00
2018-04-25T07:07:05.748Z,16.01
2018-04-25T07:08:05.852Z,16.07
2018-04-25T07:09:06.052Z,15.88
2018-04-25T07:10:06.267Z,16.06
2018-04-25T07:11:08.092Z,15.94
2018-04-25T07:12:06.674Z,15.93
2018-04-25T07:13:06.901Z,15.94
2018-04-25T07:14:07.187Z,15.94
2018-04-25T07:15:07.328Z,15.96
2018-04-25T07:16:07.543Z,16.00
2018-04-25T07:17:07.754Z,15.96
2018-04-25T07:18:07.971Z,15.94
2018-04-25T07:19:08.196Z,15.89
2018-04-25T07:20:08.409Z,15.94
2018-04-25T07:21:08.634Z,15.89
2018-04-25T07:22:12.597Z,16.03
2018-04-25T07:23:09.051Z,16.15
2018-04-25T07:24:09.269Z,16.11
2018-04-25T07:25:09.477Z,16.07
2018-04-25T07:26:11.585Z,16.03
2018-04-25T07:27:11.639Z,16.06
2018-04-25T07:28:10.084Z,16.12
2018-04-25T07:29:10.316Z,16.03
2018-04-25T07:30:10.423Z,16.09
2018-04-25T07:31:10.637Z,16.12
2018-04-25T07:32:12.640Z,16.06
2018-04-25T07:33:11.043Z,16.16
2018-04-25T07:34:11.266Z,16.06
2018-04-25T07:35:11.482Z,16.01
2018-04-25T07:36:13.598Z,16.09
2018-04-25T07:37:11.839Z,16.12
2018-04-25T07:38:12.068Z,16.18
2018-04-25T07:39:12.269Z,16.07
2018-04-25T07:40:12.486Z,16.16
2018-04-25T07:41:12.699Z,16.18
2018-04-25T07:42:12.910Z,16.12
2018-04-25T07:43:13.136Z,16.22
2018-04-25T07:44:13.377Z,16.14
2018-04-25T07:45:13.569Z,16.18
2018-04-25T07:46:13.780Z,16.18
2018-04-25T07:47:13.993Z,16.26
2018-04-25T07:48:14.206Z,16.33
2018-04-25T07:49:14.417Z,16.41
2018-04-25T07:50:14.625Z,16.55
2018-04-25T07:51:16.594Z,16.62
2018-04-25T07:52:16.678Z,16.62
2018-04-25T07:53:15.179Z,16.67
2018-04-25T07:54:15.405Z,16.67
2018-04-25T07:55:15.623Z,16.74
2018-04-25T07:56:15.835Z,16.81
2018-04-25T07:57:16.045Z,16.98
2018-04-25T07:58:16.255Z,17.06
2018-04-25T07:59:16.471Z,17.06
2018-04-25T08:00:16.681Z,17.07
2018-04-25T08:01:16.888Z,17.06
2018-04-25T08:02:17.103Z,17.13
2018-04-25T08:03:17.311Z,17.20
2018-04-25T08:04:17.531Z,17.15
2018-04-25T08:05:17.751Z,17.04
2018-04-25T08:06:17.955Z,17.03
2018-04-25T08:07:18.168Z,17.04
2018-04-25T08:08:20.101Z,16.98
2018-04-25T08:09:20.094Z,17.08
2018-04-25T08:10:18.686Z,16.96
2018-04-25T08:11:18.907Z,17.11
2018-04-25T08:12:19.170Z,17.15
2018-04-25T08:13:19.335Z,17.10
2018-04-25T08:14:19.554Z,17.08
2018-04-25T08:15:19.756Z,17.10
2018-04-25T08:16:19.973Z,17.25
2018-04-25T08:17:20.178Z,17.35
2018-04-25T08:18:20.387Z,17.46
2018-04-25T08:19:20.605Z,17.89
2018-04-25T08:20:20.812Z,18.42
2018-04-25T08:21:21.020Z,18.47
2018-04-25T08:22:21.237Z,19.40
2018-04-25T08:23:21.451Z,18.91
2018-04-25T08:24:21.676Z,18.91
2018-04-25T08:25:21.885Z,19.58
2018-04-25T08:26:22.100Z,20.23
2018-04-25T08:27:22.308Z,21.02
2018-04-25T08:28:24.093Z,20.39
2018-04-25T08:29:22.688Z,20.87
2018-04-25T08:30:22.921Z,21.24
2018-04-25T08:31:25.095Z,21.24
2018-04-25T08:32:23.316Z,20.93
2018-04-25T08:33:25.111Z,20.95
2018-04-25T08:34:23.736Z,21.23
2018-04-25T08:35:23.895Z,22.07
2018-04-25T08:36:24.108Z,22.87
2018-04-25T08:37:24.330Z,23.09
2018-04-25T08:38:28.090Z,22.87
2018-04-25T08:39:26.597Z,22.60
2018-04-25T08:40:24.816Z,22.59
2018-04-25T08:41:25.048Z,22.07
2018-04-25T08:42:26.242Z,21.42
2018-04-25T08:43:27.112Z,21.32
2018-04-25T08:44:25.710Z,20.90
2018-04-25T08:45:30.605Z,20.53
2018-04-25T08:46:26.076Z,20.27
2018-04-25T08:47:26.321Z,19.86
2018-04-25T08:48:28.129Z,19.48
2018-04-25T08:49:26.556Z,19.25
2018-04-25T08:50:26.772Z,19.14
2018-04-25T08:51:27.007Z,18.95
2018-04-25T08:52:27.227Z,18.99
2018-04-25T08:53:27.449Z,18.91
2018-04-25T08:54:27.697Z,18.92
2018-04-25T08:55:27.808Z,18.59
2018-04-25T08:56:28.032Z,18.49
2018-04-25T08:57:28.291Z,18.47
2018-04-25T08:58:28.467Z,18.40
2018-04-25T08:59:28.704Z,18.39
2018-04-25T09:00:28.932Z,18.50
2018-04-25T09:01:29.140Z,18.34
2018-04-25T09:02:29.364Z,18.10
2018-04-25T09:03:29.576Z,18.12
2018-04-25T09:04:29.787Z,18.02
2018-04-25T09:05:30.016Z,17.94
2018-04-25T09:06:30.280Z,17.97
2018-04-25T09:07:30.447Z,17.88
2018-04-25T09:08:30.673Z,17.91
2018-04-25T09:09:30.883Z,17.92
2018-04-25T09:10:31.103Z,17.76
2018-04-25T09:11:33.095Z,17.63
2018-04-25T09:12:31.430Z,17.51
2018-04-25T09:13:31.661Z,17.54
2018-04-25T09:14:31.883Z,17.53
2018-04-25T09:15:32.104Z,17.50
2018-04-25T09:16:32.310Z,17.54
2018-04-25T09:17:32.525Z,17.66
2018-04-25T09:18:34.602Z,17.76
2018-04-25T09:19:32.944Z,17.99
2018-04-25T09:20:33.153Z,18.39
2018-04-25T09:21:33.360Z,18.47
2018-04-25T09:22:33.570Z,18.58
2018-04-25T09:23:33.798Z,18.79
2018-04-25T09:24:34.047Z,18.97
2018-04-25T09:25:34.250Z,18.99
2018-04-25T09:26:34.480Z,19.13
2018-04-25T09:27:34.705Z,19.21
2018-04-25T09:28:34.920Z,19.21
2018-04-25T09:29:35.151Z,18.97
2018-04-25T09:30:35.377Z,18.94
2018-04-25T09:31:35.587Z,18.52
2018-04-25T09:32:35.808Z,18.19
2018-04-25T09:33:36.019Z,18.02
2018-04-25T09:34:36.229Z,18.00
2018-04-25T09:35:38.110Z,17.78
2018-04-25T09:36:36.578Z,17.67
2018-04-25T09:37:36.806Z,17.51
2018-04-25T09:38:37.017Z,17.44
2018-04-25T09:39:37.232Z,17.47
2018-04-25T09:40:37.453Z,17.43
2018-04-25T09:41:39.617Z,17.26
2018-04-25T09:42:37.837Z,17.20
2018-04-25T09:43:38.065Z,17.14
2018-04-25T09:44:38.279Z,17.06
2018-04-25T09:45:38.503Z,17.17
2018-04-25T09:46:38.729Z,17.03
2018-04-25T09:47:38.939Z,17.11
2018-04-25T09:48:39.163Z,16.96
2018-04-25T09:49:41.098Z,16.85
2018-04-25T09:50:39.554Z,16.88
2018-04-25T09:51:39.771Z,16.78
2018-04-25T09:52:39.985Z,16.78
2018-04-25T09:53:40.194Z,16.93
2018-04-25T09:54:40.416Z,16.96
2018-04-25T09:55:42.608Z,17.08
2018-04-25T09:56:40.811Z,17.13
2018-04-25T09:57:41.117Z,17.40
2018-04-25T09:58:41.249Z,17.47
2018-04-25T09:59:41.468Z,17.70
2018-04-25T10:00:45.621Z,17.99
2018-04-25T10:01:41.828Z,18.06
2018-04-25T10:02:42.056Z,17.95
2018-04-25T10:03:42.279Z,17.91
2018-04-25T10:04:42.492Z,17.91
2018-04-25T10:05:42.705Z,18.03
2018-04-25T10:06:42.930Z,18.28
2018-04-25T10:07:43.166Z,18.76
2018-04-25T10:08:43.364Z,18.99
2018-04-25T10:09:43.580Z,19.20
2018-04-25T10:10:43.889Z,19.25
2018-04-25T10:11:44.014Z,19.32
2018-04-25T10:12:44.222Z,19.65
2018-04-25T10:13:44.448Z,20.00
2018-04-25T10:14:44.689Z,20.46
2018-04-25T10:15:46.604Z,20.69
2018-04-25T10:16:45.072Z,20.65
2018-04-25T10:17:47.112Z,21.44
2018-04-25T10:18:45.473Z,22.41
2018-04-25T10:19:47.106Z,23.34
2018-04-25T10:20:46.779Z,24.04
2018-04-25T10:21:47.615Z,23.65
2018-04-25T10:22:48.112Z,23.02
2018-04-25T10:23:46.454Z,22.69
2018-04-25T10:24:47.688Z,23.42
2018-04-25T10:25:48.609Z,23.43
2018-04-25T10:26:48.601Z,22.50
2018-04-25T10:27:47.196Z,21.78
2018-04-25T10:28:48.447Z,21.23
2018-04-25T10:29:48.599Z,21.20
2018-04-25T10:30:47.863Z,21.39
2018-04-25T10:31:47.982Z,21.16
2018-04-25T10:32:48.208Z,21.01
2018-04-25T10:33:48.425Z,21.21
2018-04-25T10:34:48.649Z,21.21
2018-04-25T10:35:48.878Z,22.23
2018-04-25T10:36:50.092Z,22.78
2018-04-25T10:37:49.313Z,23.57
2018-04-25T10:38:49.612Z,23.46
2018-04-25T10:39:53.638Z,23.11
2018-04-25T10:40:49.998Z,22.64
2018-04-25T10:41:50.093Z,22.94
2018-04-25T10:42:52.125Z,22.43
2018-04-25T10:43:50.466Z,22.29
2018-04-25T10:44:50.683Z,21.88
2018-04-25T10:45:52.603Z,21.34
2018-04-25T10:46:52.616Z,21.19
2018-04-25T10:47:52.231Z,20.77
2018-04-25T10:48:51.367Z,20.41
2018-04-25T10:49:51.479Z,20.16
2018-04-25T10:50:51.692Z,19.97
2018-04-25T10:51:51.926Z,19.95
2018-04-25T10:52:56.103Z,19.78
2018-04-25T10:53:54.118Z,19.50
2018-04-25T10:54:54.106Z,19.36
2018-04-25T10:55:56.605Z,19.29
2018-04-25T10:56:52.816Z,19.78
2018-04-25T10:57:54.609Z,19.90
2018-04-25T10:58:53.205Z,19.70
2018-04-25T10:59:55.105Z,19.61
2018-04-25T11:00:53.572Z,19.57
2018-04-25T11:01:53.792Z,19.25
2018-04-25T11:02:54.032Z,19.10
2018-04-25T11:03:54.132Z,18.92
2018-04-25T11:04:55.368Z,18.79
2018-04-25T11:05:54.608Z,18.49
2018-04-25T11:06:54.824Z,18.55
2018-04-25T11:07:55.054Z,18.19
2018-04-25T11:08:55.275Z,17.97
2018-04-25T11:09:55.488Z,17.74
2018-04-25T11:10:55.714Z,17.44
2018-04-25T11:11:59.617Z,17.26
2018-04-25T11:12:56.093Z,17.03
2018-04-25T11:13:56.336Z,16.75
2018-04-25T11:14:56.533Z,16.56
2018-04-25T11:15:56.747Z,16.42
2018-04-25T11:16:56.969Z,16.40
2018-04-25T11:17:57.181Z,16.27
2018-04-25T11:18:57.409Z,16.37
2018-04-25T11:19:59.622Z,17.70
2018-04-25T11:20:57.838Z,18.68
2018-04-25T11:21:58.065Z,19.63
2018-04-25T11:22:58.295Z,20.24
2018-04-25T11:23:58.517Z,19.80
2018-04-25T11:25:00.690Z,19.38
2018-04-25T11:25:58.945Z,18.94
2018-04-25T11:26:59.181Z,18.84
2018-04-25T11:27:59.387Z,18.50
2018-04-25T11:29:01.113Z,18.36
2018-04-25T11:29:59.838Z,17.91
2018-04-25T11:31:00.054Z,17.62
2018-04-25T11:32:00.354Z,17.53
2018-04-25T11:33:00.506Z,17.22
2018-04-25T11:34:00.717Z,17.03
2018-04-25T11:35:00.991Z,16.96
2018-04-25T11:36:01.175Z,17.03
2018-04-25T11:37:01.380Z,16.67
2018-04-25T11:38:01.600Z,16.49
2018-04-25T11:39:01.828Z,16.38
2018-04-25T11:40:02.029Z,16.38
2018-04-25T11:41:02.252Z,16.35
2018-04-25T11:42:02.476Z,16.37
2018-04-25T11:43:02.696Z,16.75
2018-04-25T11:44:02.919Z,17.11
2018-04-25T11:45:05.109Z,17.64
2018-04-25T11:46:03.319Z,17.78
2018-04-25T11:47:03.566Z,17.79
2018-04-25T11:48:03.753Z,17.55
2018-04-25T11:49:03.961Z,17.46
2018-04-25T11:50:04.183Z,17.41
2018-04-25T11:51:04.396Z,17.41
2018-04-25T11:52:04.619Z,17.28
2018-04-25T11:53:04.835Z,17.20
2018-04-25T11:54:05.052Z,17.06
2018-04-25T11:55:05.273Z,17.11
2018-04-25T11:56:07.111Z,17.00
2018-04-25T11:57:07.639Z,16.92
2018-04-25T11:58:05.831Z,16.78
2018-04-25T11:59:07.613Z,16.73
2018-04-25T12:00:06.209Z,16.63
2018-04-25T12:01:06.432Z,16.52
2018-04-25T12:02:06.646Z,16.63
2018-04-25T12:03:06.872Z,16.62
2018-04-25T12:04:07.106Z,16.59
2018-04-25T12:05:07.343Z,16.52
2018-04-25T12:06:07.548Z,16.75
2018-04-25T12:07:09.652Z,17.17
2018-04-25T12:08:07.958Z,17.08
2018-04-25T12:09:10.112Z,17.22
2018-04-25T12:10:08.321Z,18.00
2018-04-25T12:11:10.113Z,18.74
2018-04-25T12:12:08.710Z,19.50
2018-04-25T12:13:08.991Z,20.15
2018-04-25T12:14:09.133Z,20.31
2018-04-25T12:15:09.343Z,20.06
2018-04-25T12:16:09.568Z,19.66
2018-04-25T12:17:09.801Z,19.73
2018-04-25T12:18:10.015Z,19.36
2018-04-25T12:19:10.255Z,18.64
2018-04-25T12:20:10.466Z,18.52
2018-04-25T12:21:10.696Z,18.42
2018-04-25T12:22:10.919Z,18.39
2018-04-25T12:23:11.181Z,18.39
2018-04-25T12:24:13.130Z,18.22
2018-04-25T12:25:13.126Z,17.91
2018-04-25T12:26:11.734Z,17.66
2018-04-25T12:27:11.946Z,17.53
2018-04-25T12:28:14.116Z,17.41
2018-04-25T12:29:14.119Z,17.29
2018-04-25T12:30:12.464Z,17.11
2018-04-25T12:31:12.684Z,17.18
2018-04-25T12:32:12.903Z,17.15
2018-04-25T12:33:13.123Z,17.18
2018-04-25T12:34:13.355Z,16.92
2018-04-25T12:35:16.115Z,16.98
2018-04-25T12:36:13.714Z,16.99
2018-04-25T12:37:13.934Z,17.03
2018-04-25T12:38:14.149Z,16.92
2018-04-25T12:39:16.112Z,16.74
2018-04-25T12:40:14.597Z,16.65
2018-04-25T12:41:14.793Z,16.80
2018-04-25T12:42:15.014Z,16.59
2018-04-25T12:43:15.231Z,16.58
2018-04-25T12:44:15.457Z,16.44
2018-04-25T12:45:15.672Z,16.48
2018-04-25T12:46:15.900Z,16.44
2018-04-25T12:47:16.189Z,16.59
2018-04-25T12:48:18.120Z,16.70
2018-04-25T12:49:16.462Z,16.85
2018-04-25T12:50:20.612Z,16.88
2018-04-25T12:51:16.821Z,16.99
2018-04-25T12:52:17.041Z,17.15
2018-04-25T12:53:17.263Z,17.26
2018-04-25T12:54:17.468Z,17.23
2018-04-25T12:55:17.701Z,17.17